Time;durP1;ratioP1;P1;durP2;ratioP2;P2;SDS_P1;SDS_P2;PMS_P1;PMS_P2;Temp;Humidity;BMP_temperature;BMP_pressure;BME280_temperature;BME280_humidity;BME280_pressure;Samples;Min_cycle;Max_cycle;Signal;HPM_P1;HPM_P2
2022/05/20 00:01:12;;;;;;;2.40;1.70;;;;;;;6.11;75.14;96655.39;1675514;85;21034;-68
2022/05/20 00:03:40;;;;;;;4.90;1.93;;;;;;;6.15;75.12;96654.16;1675793;86;21049;-68
2022/05/20 00:06:07;;;;;;;2.27;1.30;;;;;;;6.22;75.14;96652.50;1675723;85;21492;-68
2022/05/20 00:08:34;;;;;;;3.30;1.27;;;;;;;6.13;74.48;96644.08;1675670;86;21591;-68
2022/05/20 00:11:01;;;;;;;2.33;1.00;;;;;;;6.05;73.97;96651.83;1676129;86;21552;-68
2022/05/20 00:13:28;;;;;;;4.50;1.20;;;;;;;6.00;74.07;96649.99;1676052;86;21021;-67
2022/05/20 00:15:55;;;;;;;3.90;1.10;;;;;;;5.98;74.34;96654.32;1688924;85;21048;-67
2022/05/20 00:18:22;;;;;;;2.77;1.30;;;;;;;6.06;75.04;96639.16;1665295;85;21031;-67
2022/05/20 00:20:49;;;;;;;1.70;1.20;;;;;;;6.14;74.57;96640.59;1688859;85;21088;-68
2022/05/20 00:23:15;;;;;;;1.93;1.10;;;;;;;6.17;74.33;96638.01;1689164;85;21029;-68
2022/05/20 00:25:48;;;;;;;3.87;1.00;;;;;;;6.08;75.07;96645.75;1689153;85;21065;-68
2022/05/20 00:28:21;;;;;;;2.45;1.37;;;;;;;5.99;74.83;96654.33;1688964;85;21013;-68
2022/05/20 00:30:53;;;;;;;1.72;1.32;;;;;;;5.99;74.83;96654.33;1689053;85;21586;-68
2022/05/20 00:33:20;;;;;;;1.53;1.23;;;;;;;6.00;73.91;96650.87;1688444;85;21052;-68
2022/05/20 00:35:48;;;;;;;2.87;1.10;;;;;;;5.93;73.59;96653.33;1689041;85;21036;-69
2022/05/20 00:38:16;;;;;;;1.93;1.10;;;;;;;5.94;73.65;96649.88;1689142;85;21048;-68
2022/05/20 00:40:44;;;;;;;1.37;1.10;;;;;;;5.98;73.81;96659.12;1689037;85;21044;-68
2022/05/20 00:43:35;;;;;;;2.57;1.10;;;;;;;5.86;73.87;96659.77;1689106;85;21064;-68
2022/05/20 00:46:07;;;;;;;5.70;1.53;;;;;;;5.89;74.78;96660.23;1689027;85;21048;-68
2022/05/20 00:48:34;;;;;;;2.20;1.20;;;;;;;5.81;75.08;96664.47;1689003;85;21032;-68
2022/05/20 00:51:23;;;;;;;2.17;1.37;;;;;;;5.74;75.52;96663.47;1689004;85;21061;-68
2022/05/20 00:53:58;;;;;;;0.83;0.83;;;;;;;5.62;76.18;96665.91;1688313;85;21081;-68
2022/05/20 00:56:30;;;;;;;2.13;1.00;;;;;;;5.53;76.67;96669.22;1688946;85;21005;-68
2022/05/20 00:58:58;;;;;;;1.97;1.30;;;;;;;5.51;77.31;96667.44;1689188;85;21515;-68
2022/05/20 01:01:28;;;;;;;1.47;1.00;;;;;;;5.55;76.91;96670.58;1688993;85;21057;-68
2022/05/20 01:03:55;;;;;;;1.27;0.93;;;;;;;5.55;76.45;96677.12;1688966;85;21044;-68
2022/05/20 01:06:22;;;;;;;2.70;1.30;;;;;;;5.55;76.72;96674.06;1689125;85;21048;-68
2022/05/20 01:08:49;;;;;;;1.53;1.27;;;;;;;5.55;77.00;96668.83;1688797;85;21088;-69
2022/05/20 01:11:15;;;;;;;1.63;0.97;;;;;;;5.51;76.97;96678.78;1688894;85;21044;-68
2022/05/20 01:13:44;;;;;;;1.70;0.97;;;;;;;5.47;77.14;96673.05;1688986;85;21052;-69
2022/05/20 01:16:11;;;;;;;1.77;1.00;;;;;;;5.43;76.26;96675.14;1652728;86;21354;-69
2022/05/20 01:18:40;;;;;;;1.50;1.07;;;;;;;5.39;76.75;96672.91;1675952;85;21045;-69
2022/05/20 01:21:07;;;;;;;1.23;0.80;;;;;;;5.46;76.83;96671.27;1675928;85;21042;-68
2022/05/20 01:23:37;;;;;;;1.63;0.90;;;;;;;5.40;76.65;96670.73;1675886;85;21017;-68
2022/05/20 01:26:06;;;;;;;1.70;1.10;;;;;;;5.41;75.81;96670.30;1675781;85;21480;-68
2022/05/20 01:28:34;;;;;;;2.07;1.00;;;;;;;5.39;76.29;96679.45;1675909;85;21555;-68
2022/05/20 01:31:06;;;;;;;1.80;1.30;;;;;;;5.47;75.80;96678.69;1675501;85;21499;-68
2022/05/20 01:33:41;;;;;;;2.77;1.10;;;;;;;5.50;75.96;96670.48;1630532;88;21551;-68
2022/05/20 01:36:15;;;;;;;1.27;1.00;;;;;;;5.52;75.42;96674.02;1650103;87;21511;-68
2022/05/20 01:38:42;;;;;;;2.43;1.03;;;;;;;5.55;75.30;96673.19;1675727;86;21507;-68
2022/05/20 01:41:15;;;;;;;2.90;1.33;;;;;;;5.61;75.23;96663.69;1675839;86;21045;-68
2022/05/20 01:44:08;;;;;;;3.77;1.00;;;;;;;5.60;75.61;96670.23;1675903;85;20993;-68
2022/05/20 01:46:41;;;;;;;1.93;1.10;;;;;;;5.55;76.01;96670.14;1675578;86;21026;-68
2022/05/20 01:49:22;;;;;;;1.32;1.10;;;;;;;5.66;75.78;96669.02;1676114;85;21053;-68
2022/05/20 01:52:15;;;;;;;1.10;1.00;;;;;;;5.64;75.05;96665.48;1675841;85;21022;-69
2022/05/20 01:54:56;;;;;;;2.40;1.20;;;;;;;5.54;75.86;96669.67;1676116;85;21547;-69
2022/05/20 01:58:05;;;;;;;1.10;1.00;;;;;;;5.41;76.31;96668.56;1630694;88;21077;-69
2022/05/20 02:00:35;;;;;;;1.47;1.00;;;;;;;5.39;75.84;96668.98;1634669;88;21030;-69
2022/05/20 02:03:33;;;;;;;1.30;1.20;;;;;;;5.44;75.15;96663.81;1619862;89;21112;-69
2022/05/20 02:06:04;;;;;;;2.23;0.93;;;;;;;5.40;74.52;96662.02;1620470;89;21367;-68
2022/05/20 02:09:04;;;;;;;3.17;1.20;;;;;;;5.31;74.26;96667.94;1620670;89;21046;-68
2022/05/20 02:11:53;;;;;;;1.50;0.93;;;;;;;5.30;75.62;96659.64;1562441;92;21599;-68
2022/05/20 02:14:45;;;;;;;1.97;1.10;;;;;;;5.24;76.01;96662.55;1610015;88;21113;-68
2022/05/20 02:17:28;;;;;;;4.37;2.00;;;;;;;5.25;75.40;96665.22;1673630;85;21073;-68
2022/05/20 02:20:04;;;;;;;6.55;1.42;;;;;;;5.30;75.37;96664.00;1673031;86;21041;-68
2022/05/20 02:22:35;;;;;;;3.27;2.03;;;;;;;5.23;76.57;96663.42;1673896;86;21112;-68
2022/05/20 02:25:06;;;;;;;1.30;1.10;;;;;;;5.15;76.92;96668.50;1673695;86;21056;-68
2022/05/20 02:27:37;;;;;;;3.00;0.90;;;;;;;5.06;76.15;96669.63;1673444;86;21093;-68
2022/05/20 02:30:10;;;;;;;2.53;1.37;;;;;;;4.94;77.50;96665.92;1673557;85;21527;-69
2022/05/20 02:32:45;;;;;;;1.57;1.20;;;;;;;4.96;77.27;96662.92;1673297;86;21057;-69
2022/05/20 02:35:12;;;;;;;2.07;1.50;;;;;;;4.93;78.13;96663.27;1673617;86;21077;-69
2022/05/20 02:37:40;;;;;;;3.80;2.00;;;;;;;4.95;77.88;96662.87;1673627;86;21033;-69
2022/05/20 02:40:11;;;;;;;4.07;1.70;;;;;;;4.97;77.69;96669.03;1674070;86;21085;-69
2022/05/20 02:42:38;;;;;;;11.77;2.07;;;;;;;4.99;77.64;96667.33;1673666;86;21022;-69
2022/05/20 02:45:06;;;;;;;0.97;0.87;;;;;;;5.05;77.85;96669.18;1673691;86;20990;-68
2022/05/20 02:47:36;;;;;;;2.90;1.00;;;;;;;5.07;76.83;96666.17;1673479;86;20982;-68
2022/05/20 02:50:08;;;;;;;1.10;0.60;;;;;;;5.09;76.23;96670.98;1673528;86;21524;-68
2022/05/20 02:52:35;;;;;;;0.80;0.80;;;;;;;5.01;75.75;96674.75;1673557;86;21484;-68
2022/05/20 02:55:04;;;;;;;1.47;1.17;;;;;;;5.02;75.74;96673.05;1673329;86;21046;-68
2022/05/20 02:57:31;;;;;;;3.17;0.83;;;;;;;4.95;75.36;96674.21;1673643;86;21088;-68
2022/05/20 03:05:28;;;;;;;7.13;1.00;;;;;;;4.83;78.37;96671.34;1673292;86;21057;-68
2022/05/20 03:07:55;;;;;;;1.57;1.10;;;;;;;4.94;78.09;96672.89;1673700;86;21093;-69
2022/05/20 03:10:22;;;;;;;3.40;0.90;;;;;;;5.04;77.64;96668.70;1673399;86;21050;-69
2022/05/20 03:12:48;;;;;;;1.53;0.90;;;;;;;5.11;77.59;96668.85;1673601;86;21531;-69
2022/05/20 03:15:17;;;;;;;2.40;0.97;;;;;;;5.11;77.15;96664.05;1676000;85;21152;-68
2022/05/20 03:17:43;;;;;;;0.70;0.70;;;;;;;5.18;77.12;96662.89;1656027;85;20990;-69
2022/05/20 03:20:11;;;;;;;3.50;1.17;;;;;;;5.23;76.65;96662.98;1681496;85;21080;-68
2022/05/20 03:22:38;;;;;;;1.93;1.07;;;;;;;5.24;77.53;96663.47;1681220;85;21014;-68
2022/05/20 03:25:06;;;;;;;1.70;0.87;;;;;;;5.27;76.98;96664.83;1681387;85;21045;-68
2022/05/20 03:27:34;;;;;;;4.13;1.67;;;;;;;5.24;77.13;96666.48;1681322;85;21041;-68
2022/05/20 03:30:01;;;;;;;1.57;0.90;;;;;;;5.25;76.68;96670.45;1680966;85;21068;-68
2022/05/20 03:32:28;;;;;;;3.90;0.90;;;;;;;5.18;76.70;96666.82;1681244;85;21543;-68
2022/05/20 03:34:57;;;;;;;2.20;1.20;;;;;;;5.11;76.90;96671.47;1681385;85;21053;-68
2022/05/20 03:37:25;;;;;;;2.70;0.97;;;;;;;5.10;76.52;96671.02;1656014;85;21084;-69
2022/05/20 03:39:52;;;;;;;1.47;1.07;;;;;;;5.07;77.68;96674.89;1681294;85;21124;-68
2022/05/20 03:42:19;;;;;;;2.17;1.37;;;;;;;5.07;77.60;96680.56;1681364;85;21108;-68
2022/05/20 03:44:46;;;;;;;1.93;0.90;;;;;;;5.18;77.44;96674.67;1681245;85;21519;-69
2022/05/20 03:47:12;;;;;;;8.60;1.20;;;;;;;5.25;77.05;96673.06;1681280;85;21081;-69
2022/05/20 03:49:42;;;;;;;1.23;0.70;;;;;;;5.31;77.13;96673.60;1681392;85;21567;-69
2022/05/20 03:52:10;;;;;;;2.53;1.00;;;;;;;5.42;76.79;96675.58;1681265;85;21045;-69
2022/05/20 03:54:37;;;;;;;2.07;1.47;;;;;;;5.41;78.02;96672.92;1681297;85;21006;-69
2022/05/20 03:57:05;;;;;;;1.73;1.27;;;;;;;5.47;77.48;96663.89;1681494;85;21060;-69
2022/05/20 03:59:36;;;;;;;3.70;1.40;;;;;;;5.52;77.45;96658.31;1681243;85;21030;-69
2022/05/20 04:02:12;;;;;;;4.33;1.63;;;;;;;5.62;77.57;96669.84;1681377;85;21050;-68
2022/05/20 04:04:46;;;;;;;2.53;1.83;;;;;;;5.74;77.66;96664.78;1681244;85;21081;-68
2022/05/20 04:07:17;;;;;;;6.53;2.60;;;;;;;5.91;77.79;96661.16;1680723;85;21060;-68
2022/05/20 04:09:45;;;;;;;4.70;2.10;;;;;;;6.05;77.37;96670.16;1656259;85;21045;-68
2022/05/20 04:12:43;;;;;;;4.80;2.50;;;;;;;6.13;78.80;96657.62;1681181;85;21005;-68
2022/05/20 04:15:14;;;;;;;5.53;2.80;;;;;;;6.24;78.74;96659.52;1681003;85;21113;-68
2022/05/20 04:17:41;;;;;;;6.50;3.03;;;;;;;6.42;77.81;96657.61;1681281;85;21045;-68
2022/05/20 04:20:09;;;;;;;6.13;3.30;;;;;;;6.54;77.17;96660.84;1681212;85;21082;-67
2022/05/20 04:22:38;;;;;;;5.33;2.60;;;;;;;6.66;78.07;96656.20;1681116;85;21085;-68
2022/05/20 04:25:07;;;;;;;6.73;2.77;;;;;;;6.81;77.11;96660.78;1681075;85;21131;-68
2022/05/20 04:27:33;;;;;;;4.87;2.67;;;;;;;7.02;75.93;96661.47;1681348;85;21029;-68
2022/05/20 04:30:00;;;;;;;5.03;2.50;;;;;;;7.19;75.70;96662.56;1681347;85;21018;-69
2022/05/20 04:32:27;;;;;;;3.90;2.50;;;;;;;7.38;74.74;96655.76;1680910;85;21144;-68
2022/05/20 04:34:53;;;;;;;6.47;2.90;;;;;;;7.58;74.74;96651.62;1681377;85;21029;-69
2022/05/20 04:37:22;;;;;;;4.13;2.20;;;;;;;7.79;74.17;96653.56;1681371;85;21049;-69
2022/05/20 04:39:49;;;;;;;4.93;2.00;;;;;;;7.97;73.33;96657.23;1680916;85;21095;-68
2022/05/20 04:47:46;;;;;;;5.83;2.00;;;;;;;8.64;71.51;96639.34;1680813;85;21604;-68
2022/05/20 04:50:13;;;;;;;2.50;1.90;;;;;;;8.87;71.05;96632.87;1655899;85;21005;-68
2022/05/20 04:52:40;;;;;;;3.03;1.87;;;;;;;9.07;69.81;96636.91;1681274;85;21117;-68
2022/05/20 04:55:07;;;;;;;2.40;2.07;;;;;;;9.22;68.88;96631.23;1681340;85;21066;-68
2022/05/20 04:57:47;;;;;;;3.30;2.30;;;;;;;9.37;67.89;96631.28;1681391;85;21033;-70
2022/05/20 05:00:30;;;;;;;5.73;2.70;;;;;;;9.44;68.62;96629.55;1680814;85;21076;-71
2022/05/20 05:02:57;;;;;;;4.73;3.20;;;;;;;9.59;68.28;96626.95;1679675;85;21119;-70
2022/05/20 05:05:28;;;;;;;7.93;4.17;;;;;;;9.75;68.25;96630.06;1680063;85;21056;-75
2022/05/20 05:07:57;;;;;;;5.27;3.10;;;;;;;9.86;67.86;96623.48;1681136;85;21096;-71
2022/05/20 05:10:28;;;;;;;6.60;3.27;;;;;;;9.97;67.44;96616.87;1680267;85;21523;-73
2022/05/20 05:12:54;;;;;;;5.93;3.00;;;;;;;10.10;67.38;96623.03;1681069;85;21033;-67
2022/05/20 05:15:21;;;;;;;5.13;2.77;;;;;;;10.18;66.93;96621.30;1680238;85;21275;-69
2022/05/20 05:20:34;;;;;;;4.40;2.33;;;;;;;10.37;67.18;96608.53;1680867;85;21526;-67
2022/05/20 05:23:01;;;;;;;2.77;2.30;;;;;;;10.47;66.33;96614.67;1681157;85;21061;-72
2022/05/20 05:25:32;;;;;;;6.17;2.00;;;;;;;10.59;66.26;96613.78;1681415;85;21033;-75
2022/05/20 05:28:00;;;;;;;5.57;2.90;;;;;;;10.68;64.81;96613.73;1681447;85;21113;-70
2022/05/20 05:30:27;;;;;;;6.20;2.50;;;;;;;10.77;65.11;96608.89;1681293;85;21041;-72
2022/05/20 05:32:54;;;;;;;6.23;3.00;;;;;;;10.88;64.91;96607.53;1681048;85;21499;-71
2022/05/20 05:35:24;;;;;;;5.30;2.93;;;;;;;11.01;64.96;96606.59;1681208;85;21057;-77
2022/05/20 05:37:51;;;;;;;4.57;3.00;;;;;;;11.19;64.78;96599.92;1681089;85;21060;-67
2022/05/20 05:40:22;;;;;;;4.07;2.37;;;;;;;11.35;65.05;96600.72;1680105;85;21049;-70
2022/05/20 05:42:50;;;;;;;7.63;2.40;;;;;;;11.51;64.89;96597.53;1680217;85;21096;-72
2022/05/20 05:45:20;;;;;;;6.07;2.20;;;;;;;11.69;64.83;96594.78;1681241;85;21602;-69
2022/05/20 05:47:52;;;;;;;6.27;2.30;;;;;;;11.87;64.39;96592.48;1681210;85;21049;-71
2022/05/20 05:50:20;;;;;;;5.17;1.90;;;;;;;12.08;64.04;96592.74;1681140;85;21527;-69
2022/05/20 05:53:00;;;;;;;5.23;2.03;;;;;;;12.30;64.01;96581.53;1681441;85;21084;-68
2022/05/20 05:55:27;;;;;;;5.50;2.10;;;;;;;12.51;63.71;96581.75;1681354;85;21085;-69
2022/05/20 05:57:54;;;;;;;7.40;1.87;;;;;;;12.73;63.15;96581.53;1679493;85;21665;-68
2022/05/20 06:00:22;;;;;;;3.20;1.77;;;;;;;12.92;62.93;96579.08;1680128;85;21099;-71
2022/05/20 06:02:49;;;;;;;5.37;1.80;;;;;;;13.12;61.96;96581.94;1680327;85;21104;-71
2022/05/20 06:05:16;;;;;;;5.67;2.27;;;;;;;13.29;61.55;96574.68;1680303;85;21128;-71
2022/05/20 06:07:42;;;;;;;7.47;1.92;;;;;;;13.45;61.04;96575.33;1680193;85;21069;-70
2022/05/20 06:10:10;;;;;;;4.97;1.62;;;;;;;13.66;61.08;96570.61;1680574;85;21638;-71
2022/05/20 06:12:37;;;;;;;4.53;1.90;;;;;;;13.85;60.91;96570.77;1679866;85;21054;-71
2022/05/20 06:15:09;;;;;;;5.00;2.10;;;;;;;14.03;60.44;96564.28;1680748;85;21606;-70
2022/05/20 06:17:36;;;;;;;5.37;1.80;;;;;;;14.19;60.01;96563.59;1672773;85;21598;-70
2022/05/20 06:20:04;;;;;;;2.85;1.72;;;;;;;14.33;59.71;96562.01;1672780;86;21113;-70
2022/05/20 06:22:31;;;;;;;3.72;2.15;;;;;;;14.46;59.52;96568.41;1672999;86;21553;-70
2022/05/20 06:24:58;;;;;;;5.35;2.05;;;;;;;14.59;59.18;96562.45;1672826;86;21006;-70
2022/05/20 06:27:25;;;;;;;6.92;2.20;;;;;;;14.69;58.53;96559.14;1672531;86;21125;-70
2022/05/20 06:29:52;;;;;;;4.67;2.40;;;;;;;14.81;58.46;96554.92;1673514;86;21021;-70
2022/05/20 06:32:20;;;;;;;9.73;1.87;;;;;;;14.95;57.77;96557.31;1672768;86;21560;-69
2022/05/20 06:40:20;;;;;;;3.10;1.55;;;;;;;15.48;56.14;96549.10;1673396;86;21063;-68
2022/05/20 06:42:47;;;;;;;4.20;1.77;;;;;;;15.66;54.53;96546.47;1673578;86;21504;-67
2022/05/20 06:45:15;;;;;;;8.35;1.90;;;;;;;15.86;54.82;96537.59;1673636;86;21005;-68
2022/05/20 06:47:43;;;;;;;7.67;1.90;;;;;;;16.02;53.74;96542.06;1673097;86;21136;-67
2022/05/20 06:50:12;;;;;;;5.87;1.92;;;;;;;16.20;53.80;96541.63;1672899;86;21081;-68
2022/05/20 06:52:38;;;;;;;5.42;1.42;;;;;;;16.39;53.25;96547.80;1673392;86;21069;-67
2022/05/20 06:55:08;;;;;;;4.30;1.50;;;;;;;16.55;51.19;96548.25;1672632;86;21096;-68
2022/05/20 06:57:39;;;;;;;9.33;1.80;;;;;;;16.72;51.76;96545.14;1672545;86;21593;-69
2022/05/20 07:00:11;;;;;;;7.40;1.45;;;;;;;16.91;52.42;96541.52;1672680;86;21002;-69
2022/05/20 07:02:39;;;;;;;4.87;1.82;;;;;;;17.11;50.57;96537.84;1672244;86;21108;-69
2022/05/20 07:05:08;;;;;;;7.00;1.47;;;;;;;17.29;50.77;96537.30;1672988;86;21036;-69
2022/05/20 07:07:35;;;;;;;4.33;1.42;;;;;;;17.48;49.68;96528.25;1673032;86;21076;-68
2022/05/20 07:10:03;;;;;;;2.83;1.50;;;;;;;17.67;47.15;96529.03;1672453;86;21088;-74
2022/05/20 07:12:31;;;;;;;4.08;1.22;;;;;;;17.85;44.42;96528.47;1672595;86;21728;-68
2022/05/20 07:15:00;;;;;;;3.08;1.20;;;;;;;18.03;46.46;96519.45;1672932;86;20990;-69
2022/05/20 07:17:27;;;;;;;1.80;1.17;;;;;;;18.19;42.99;96517.99;1667219;86;21094;-71
2022/05/20 07:19:54;;;;;;;3.05;1.20;;;;;;;18.35;43.52;96521.03;1665171;86;21073;-70
2022/05/20 07:22:21;;;;;;;2.37;0.93;;;;;;;18.44;37.06;96516.69;1665820;86;21069;-78
2022/05/20 07:24:48;;;;;;;2.52;1.10;;;;;;;18.59;39.58;96514.80;1665236;86;21527;-72
2022/05/20 07:27:14;;;;;;;3.77;1.05;;;;;;;18.77;39.58;96521.80;1665045;86;21093;-71
2022/05/20 07:29:41;;;;;;;4.42;0.93;;;;;;;18.89;37.25;96517.34;1664958;86;21117;-71
2022/05/20 07:32:08;;;;;;;3.83;1.00;;;;;;;19.13;37.70;96519.58;1664793;85;21062;-73
2022/05/20 07:34:35;;;;;;;5.42;1.40;;;;;;;19.13;37.70;96519.58;1665270;86;21062;-69
2022/05/20 07:37:04;;;;;;;5.20;1.20;;;;;;;19.23;35.36;96511.61;1665413;86;21564;-67
2022/05/20 07:39:31;;;;;;;1.95;1.00;;;;;;;19.32;34.57;96513.05;1665909;86;21103;-67
2022/05/20 07:41:58;;;;;;;2.12;1.30;;;;;;;19.43;35.78;96512.66;1665638;86;21488;-67
2022/05/20 07:44:24;;;;;;;2.62;1.00;;;;;;;19.55;35.70;96516.16;1664295;86;21090;-67
2022/05/20 07:46:51;;;;;;;2.67;0.95;;;;;;;19.65;35.65;96520.25;1666014;86;21082;-67
2022/05/20 07:49:17;;;;;;;5.17;1.00;;;;;;;19.74;34.39;96517.69;1665753;85;21490;-67
2022/05/20 07:51:48;;;;;;;3.45;1.07;;;;;;;19.86;35.06;96518.54;1665940;86;21038;-67
2022/05/20 07:54:23;;;;;;;3.35;1.20;;;;;;;20.02;33.73;96521.45;1665929;86;21042;-68
2022/05/20 07:56:57;;;;;;;3.00;1.10;;;;;;;20.13;31.95;96518.80;1665718;85;21105;-67
2022/05/20 07:59:49;;;;;;;6.95;1.20;;;;;;;20.21;33.59;96524.70;1665526;85;21082;-68
2022/05/20 08:02:20;;;;;;;2.52;0.98;;;;;;;20.28;34.57;96515.00;1665953;85;21045;-67
2022/05/20 08:04:58;;;;;;;2.67;1.05;;;;;;;20.44;33.63;96521.08;1665547;86;21104;-67
2022/05/20 08:07:38;;;;;;;1.95;1.02;;;;;;;20.55;32.68;96517.95;1665820;85;21505;-66
2022/05/20 08:10:19;;;;;;;6.97;1.07;;;;;;;20.59;30.46;96517.77;1665733;86;21074;-67
2022/05/20 08:12:46;;;;;;;3.42;1.30;;;;;;;20.59;31.91;96515.52;1665956;85;21492;-67
2022/05/20 08:15:15;;;;;;;4.10;1.27;;;;;;;20.74;32.71;96513.54;1666264;86;21109;-67
2022/05/20 08:17:43;;;;;;;3.58;1.17;;;;;;;20.86;33.32;96505.39;1671308;85;21061;-67
2022/05/20 08:20:18;;;;;;;2.42;1.20;;;;;;;21.07;33.48;96507.60;1673267;86;21129;-67
2022/05/20 08:22:44;;;;;;;3.10;1.10;;;;;;;21.23;32.77;96493.00;1673590;86;21065;-67
2022/05/20 08:25:11;;;;;;;2.70;1.10;;;;;;;21.35;32.82;96497.31;1673462;86;21049;-67
2022/05/20 08:27:38;;;;;;;1.75;1.07;;;;;;;21.50;32.66;96504.30;1673778;86;21053;-67
2022/05/20 08:30:16;;;;;;;1.35;1.15;;;;;;;21.55;31.73;96492.86;1673700;86;21058;-67
2022/05/20 08:32:44;;;;;;;2.67;1.20;;;;;;;21.59;30.66;96492.61;1673539;86;21041;-68
2022/05/20 08:35:11;;;;;;;1.77;1.05;;;;;;;21.71;32.58;96488.95;1673526;86;21132;-67
2022/05/20 08:37:41;;;;;;;4.65;1.10;;;;;;;21.89;33.36;96489.87;1659806;86;20963;-68
2022/05/20 08:40:12;;;;;;;2.45;1.10;;;;;;;21.99;32.92;96487.98;1656027;87;22302;-68
2022/05/20 08:42:39;;;;;;;3.95;1.00;;;;;;;22.14;33.50;96486.83;1655037;87;21545;-67
2022/05/20 08:45:07;;;;;;;2.00;1.30;;;;;;;22.17;30.59;96483.98;1655877;86;21591;-67
2022/05/20 08:47:44;;;;;;;2.08;1.00;;;;;;;22.24;30.83;96480.94;1630257;87;21504;-67
2022/05/20 08:50:18;;;;;;;2.08;1.12;;;;;;;22.34;31.38;96474.63;1655922;86;21559;-67
2022/05/20 08:52:46;;;;;;;3.72;0.93;;;;;;;22.47;30.59;96473.03;1655429;86;21090;-67
2022/05/20 08:55:14;;;;;;;5.22;1.02;;;;;;;22.59;31.14;96475.57;1655919;86;21133;-67
2022/05/20 08:57:51;;;;;;;2.02;1.00;;;;;;;22.68;29.52;96464.81;1655530;87;21094;-68
2022/05/20 09:00:20;;;;;;;3.08;1.25;;;;;;;22.79;31.21;96469.14;1654530;87;21121;-67
2022/05/20 09:02:47;;;;;;;2.27;1.30;;;;;;;22.87;30.78;96469.59;1656321;86;21069;-68
2022/05/20 09:05:22;;;;;;;1.65;0.98;;;;;;;22.99;30.64;96463.21;1656041;86;21083;-68
2022/05/20 09:08:03;;;;;;;10.00;1.30;;;;;;;23.10;31.25;96464.34;1655772;87;21011;-68
2022/05/20 09:10:35;;;;;;;5.60;1.40;;;;;;;23.14;30.11;96465.06;1656494;86;21035;-67
2022/05/20 09:13:10;;;;;;;2.25;1.10;;;;;;;23.09;30.75;96467.14;1656722;86;21038;-67
2022/05/20 09:15:46;;;;;;;4.08;1.00;;;;;;;23.14;28.74;96454.30;1652706;87;21062;-67
2022/05/20 09:18:36;;;;;;;2.62;1.35;;;;;;;23.20;30.61;96457.98;1656282;86;21109;-67
2022/05/20 09:21:04;;;;;;;3.20;1.10;;;;;;;23.39;29.50;96451.59;1656285;87;21040;-67
2022/05/20 09:23:32;;;;;;;3.87;1.27;;;;;;;23.66;28.42;96454.08;1656728;87;21090;-67
2022/05/20 09:26:11;;;;;;;1.70;1.07;;;;;;;23.70;28.63;96450.72;1656575;86;21080;-67
2022/05/20 09:28:48;;;;;;;1.17;0.90;;;;;;;23.75;28.42;96450.88;1656382;86;21019;-67
2022/05/20 09:31:26;;;;;;;2.60;1.22;;;;;;;23.98;30.06;96450.03;1652254;86;21063;-67
2022/05/20 09:34:22;;;;;;;3.10;1.15;;;;;;;24.14;29.29;96444.14;1656641;86;21540;-67
2022/05/20 09:37:00;;;;;;;1.60;1.10;;;;;;;24.26;29.19;96444.36;1656214;86;21126;-67
2022/05/20 09:39:41;;;;;;;2.17;1.15;;;;;;;24.21;28.93;96443.77;1656551;86;21508;-67
2022/05/20 09:42:27;;;;;;;4.05;1.10;;;;;;;24.31;29.32;96446.30;1656546;86;21576;-67
2022/05/20 09:45:01;;;;;;;2.92;1.30;;;;;;;24.35;27.79;96442.47;1656659;86;21014;-67
2022/05/20 09:47:42;;;;;;;3.33;1.02;;;;;;;24.38;28.07;96431.48;1656602;86;21031;-67
2022/05/20 09:50:34;;;;;;;19.82;1.60;;;;;;;24.48;28.74;96435.40;1656266;86;21038;-67
2022/05/20 09:53:05;;;;;;;1.55;1.20;;;;;;;24.72;30.15;96427.65;1656532;87;21051;-67
2022/05/20 09:55:43;;;;;;;3.67;1.20;;;;;;;24.91;30.81;96424.66;1656121;86;21084;-67
2022/05/20 09:58:15;;;;;;;6.53;1.60;;;;;;;25.10;29.29;96423.48;1655498;87;21082;-66
2022/05/20 10:00:56;;;;;;;1.47;0.95;;;;;;;25.15;28.64;96415.51;1656409;86;21097;-67
2022/05/20 10:03:46;;;;;;;1.77;1.25;;;;;;;25.15;27.43;96415.96;1655647;86;21019;-67
2022/05/20 10:06:32;;;;;;;1.65;1.20;;;;;;;25.14;27.55;96411.05;1655852;86;21018;-67
2022/05/20 10:09:34;;;;;;;3.75;1.40;;;;;;;25.17;26.59;96408.67;1645295;87;21054;-67
2022/05/20 10:12:12;;;;;;;2.00;1.30;;;;;;;25.23;27.21;96401.05;1621003;88;21009;-67
2022/05/20 10:15:12;;;;;;;3.40;1.10;;;;;;;25.32;26.73;96393.31;1621165;88;21519;-67
2022/05/20 10:17:51;;;;;;;2.70;1.10;;;;;;;25.53;27.79;96395.09;1624102;88;21009;-67
2022/05/20 10:20:29;;;;;;;2.92;1.15;;;;;;;25.68;28.95;96390.06;1625851;88;21073;-67
2022/05/20 10:23:14;;;;;;;2.72;0.98;;;;;;;25.81;26.79;96382.86;1599138;88;21032;-67
2022/05/20 10:25:58;;;;;;;4.10;1.47;;;;;;;25.88;28.73;96385.58;1628063;87;21080;-67
2022/05/20 10:34:14;;;;;;;5.00;1.47;;;;;;;25.92;25.74;96382.16;1628258;88;21463;-67
2022/05/20 10:36:59;;;;;;;3.75;1.17;;;;;;;26.05;25.88;96376.80;1628199;88;21052;-66
2022/05/20 10:40:01;;;;;;;4.33;1.12;;;;;;;26.03;24.36;96379.63;1628417;88;21001;-67
2022/05/20 10:42:51;;;;;;;4.25;1.20;;;;;;;26.06;25.84;96379.90;1597471;89;21061;-67
2022/05/20 10:49:03;;;;;;;4.75;1.40;;;;;;;26.12;25.13;96366.80;1681685;85;21058;-67
2022/05/20 10:52:14;;;;;;;5.53;1.42;;;;;;;26.08;25.72;96368.00;1685987;85;21017;-67
2022/05/20 10:55:03;;;;;;;7.17;1.67;;;;;;;26.08;24.26;96369.36;1686354;85;21017;-67
2022/05/20 10:58:06;;;;;;;1.60;1.25;;;;;;;26.16;25.49;96376.95;1686195;85;21484;-67
2022/05/20 11:00:55;;;;;;;4.10;1.25;;;;;;;26.26;25.43;96370.42;1686108;85;21018;-67
2022/05/20 11:03:43;;;;;;;3.22;1.22;;;;;;;26.30;24.97;96364.67;1684571;85;21041;-67
2022/05/20 11:06:25;;;;;;;5.67;1.10;;;;;;;26.36;24.43;96361.16;1684099;85;20998;-67
2022/05/20 11:09:15;;;;;;;4.58;1.30;;;;;;;26.34;24.80;96347.75;1657610;85;21054;-67
2022/05/20 11:12:03;;;;;;;4.10;1.70;;;;;;;26.36;24.36;96355.75;1686096;85;21025;-68
2022/05/20 11:14:50;;;;;;;3.15;1.32;;;;;;;26.43;25.48;96350.29;1685998;85;20994;-67
2022/05/20 11:17:25;;;;;;;4.70;1.10;;;;;;;26.51;24.30;96351.50;1683484;85;21058;-67
2022/05/20 11:20:18;;;;;;;5.72;1.20;;;;;;;26.58;23.63;96351.95;1673682;85;21025;-67
2022/05/20 11:23:14;;;;;;;2.55;1.05;;;;;;;26.70;24.50;96346.16;1673673;85;21050;-66
2022/05/20 11:26:26;;;;;;;6.70;1.02;;;;;;;26.68;24.71;96344.05;1674042;85;21017;-67
2022/05/20 11:29:06;;;;;;;2.12;0.98;;;;;;;26.76;25.28;96341.66;1673832;85;21073;-66
2022/05/20 11:32:00;;;;;;;3.67;1.22;;;;;;;26.72;23.51;96333.39;1672657;85;21496;-67
2022/05/20 11:34:51;;;;;;;9.93;1.70;;;;;;;26.80;23.69;96326.94;1673122;85;21015;-67
2022/05/20 11:37:24;;;;;;;12.28;1.80;;;;;;;26.99;24.90;96329.20;1673117;86;21094;-67
2022/05/20 11:40:17;;;;;;;3.75;0.98;;;;;;;27.07;23.43;96333.56;1673723;85;21548;-67
2022/05/20 11:43:13;;;;;;;;;;;;;;;27.12;22.77;96325.11;1676169;86;21570;-67
2022/05/20 11:46:06;;;;;;;1.10;1.00;;;;;;;27.05;21.57;96323.32;1673823;85;20397;-67
2022/05/20 11:49:00;;;;;;;;;;;;;;;27.04;23.99;96313.94;1676155;85;21038;-67
2022/05/20 11:51:57;;;;;;;2.98;1.40;;;;;;;27.23;23.21;96312.16;1673494;85;20111;-67
2022/05/20 11:54:39;;;;;;;6.65;1.70;;;;;;;27.56;23.19;96307.41;1681692;85;21042;-67
2022/05/20 11:57:14;;;;;;;7.07;1.57;;;;;;;27.91;22.23;96299.34;1674075;85;21021;-67
2022/05/20 12:00:09;;;;;;;6.85;1.57;;;;;;;28.34;23.49;96287.00;1672613;85;21555;-67
2022/05/20 12:03:02;;;;;;;4.55;1.30;;;;;;;28.86;22.77;96283.74;1673861;85;21046;-67
2022/05/20 12:05:34;;;;;;;8.43;1.35;;;;;;;29.03;20.12;96280.13;1673904;85;21070;-67
2022/05/20 12:08:00;;;;;;;1.07;1.00;;;;;;;29.57;19.20;96275.74;1673888;85;21046;-67
2022/05/20 12:10:45;;;;;;;3.25;1.27;;;;;;;29.99;19.71;96268.55;1673921;85;21034;-67
2022/05/20 12:13:22;;;;;;;2.58;1.35;;;;;;;30.53;19.16;96267.98;1673895;86;21065;-67
2022/05/20 12:16:12;;;;;;;0.98;0.88;;;;;;;30.95;17.48;96270.16;1673856;86;20999;-67
2022/05/20 12:24:50;;;;;;;2.50;0.70;;;;;;;31.88;12.81;96251.70;1681488;85;21568;-68
2022/05/20 12:27:36;;;;;;;1.10;1.00;;;;;;;32.01;13.88;96250.07;1681487;85;20970;-67
2022/05/20 12:30:26;;;;;;;2.10;0.80;;;;;;;32.21;12.45;96242.21;1681560;85;21006;-67
2022/05/20 12:32:53;;;;;;;1.50;1.00;;;;;;;32.44;11.88;96233.17;1681604;85;21017;-67
2022/05/20 12:35:31;;;;;;;2.35;0.80;;;;;;;32.67;12.60;96232.33;1681289;85;21611;-67
2022/05/20 12:38:18;;;;;;;1.00;0.70;;;;;;;32.69;10.66;96234.41;1665816;85;21070;-67
2022/05/20 12:40:49;;;;;;;0.85;0.70;;;;;;;32.83;12.01;96234.41;1681425;85;21515;-68
2022/05/20 12:43:16;;;;;;;0.90;0.85;;;;;;;32.63;14.25;96232.26;1681629;85;21475;-67